sensor_id;sensor_type;location;lat;lon;timestamp;temperature;humidity
74940;HTU21D;63505;45.226;37.908;2023-01-24T00:00:35;-2.03;75.76
74940;HTU21D;63505;45.226;37.908;2023-01-24T00:03:01;-2.05;75.80
74940;HTU21D;63505;45.226;37.908;2023-01-24T00:05:28;-2.08;75.83
74940;HTU21D;63505;45.226;37.908;2023-01-24T00:07:54;-2.10;75.87
74940;HTU21D;63505;45.226;37.908;2023-01-24T00:10:20;-2.12;75.89
74940;HTU21D;63505;45.226;37.908;2023-01-24T00:12:48;-2.14;75.89
74940;HTU21D;63505;45.226;37.908;2023-01-24T00:15:13;-2.16;75.89
74940;HTU21D;63505;45.226;37.908;2023-01-24T00:17:39;-2.18;75.90
74940;HTU21D;63505;45.226;37.908;2023-01-24T00:20:06;-2.21;75.92
74940;HTU21D;63505;45.226;37.908;2023-01-24T00:22:32;-2.22;75.93
74940;HTU21D;63505;45.226;37.908;2023-01-24T00:24:58;-2.22;75.99
74940;HTU21D;63505;45.226;37.908;2023-01-24T00:27:24;-2.23;75.98
74940;HTU21D;63505;45.226;37.908;2023-01-24T00:29:50;-2.26;75.99
74940;HTU21D;63505;45.226;37.908;2023-01-24T00:32:16;-2.27;75.96
74940;HTU21D;63505;45.226;37.908;2023-01-24T00:34:42;-2.28;75.98
74940;HTU21D;63505;45.226;37.908;2023-01-24T00:37:08;-2.28;76.01
74940;HTU21D;63505;45.226;37.908;2023-01-24T00:39:33;-2.29;75.99
74940;HTU21D;63505;45.226;37.908;2023-01-24T00:41:59;-2.31;75.98
74940;HTU21D;63505;45.226;37.908;2023-01-24T00:44:25;-2.32;76.02
74940;HTU21D;63505;45.226;37.908;2023-01-24T00:46:52;-2.31;76.00
74940;HTU21D;63505;45.226;37.908;2023-01-24T00:49:18;-2.34;75.99
74940;HTU21D;63505;45.226;37.908;2023-01-24T00:51:45;-2.36;76.02
74940;HTU21D;63505;45.226;37.908;2023-01-24T00:54:11;-2.38;76.02
74940;HTU21D;63505;45.226;37.908;2023-01-24T00:56:37;-2.41;76.05
74940;HTU21D;63505;45.226;37.908;2023-01-24T00:59:03;-2.46;76.06
74940;HTU21D;63505;45.226;37.908;2023-01-24T01:01:29;-2.46;76.15
74940;HTU21D;63505;45.226;37.908;2023-01-24T01:03:58;-2.49;76.18
74940;HTU21D;63505;45.226;37.908;2023-01-24T01:06:24;-2.47;76.20
74940;HTU21D;63505;45.226;37.908;2023-01-24T01:08:51;-2.48;76.19
74940;HTU21D;63505;45.226;37.908;2023-01-24T01:11:18;-2.47;76.21
74940;HTU21D;63505;45.226;37.908;2023-01-24T01:13:44;-2.47;76.25
74940;HTU21D;63505;45.226;37.908;2023-01-24T01:16:16;-2.46;76.29
74940;HTU21D;63505;45.226;37.908;2023-01-24T01:18:44;-2.42;76.30
74940;HTU21D;63505;45.226;37.908;2023-01-24T01:21:12;-2.37;76.28
74940;HTU21D;63505;45.226;37.908;2023-01-24T01:23:38;-2.33;76.30
74940;HTU21D;63505;45.226;37.908;2023-01-24T01:26:06;-2.28;76.24
74940;HTU21D;63505;45.226;37.908;2023-01-24T01:28:33;-2.24;76.24
74940;HTU21D;63505;45.226;37.908;2023-01-24T01:31:00;-2.22;76.21
74940;HTU21D;63505;45.226;37.908;2023-01-24T01:33:26;-2.20;76.19
74940;HTU21D;63505;45.226;37.908;2023-01-24T01:35:52;-2.22;76.19
74940;HTU21D;63505;45.226;37.908;2023-01-24T01:38:18;-2.20;76.20
74940;HTU21D;63505;45.226;37.908;2023-01-24T01:40:45;-2.19;76.23
74940;HTU21D;63505;45.226;37.908;2023-01-24T01:43:20;-2.19;76.27
74940;HTU21D;63505;45.226;37.908;2023-01-24T01:45:48;-2.20;76.27
74940;HTU21D;63505;45.226;37.908;2023-01-24T01:48:37;-2.21;76.31
74940;HTU21D;63505;45.226;37.908;2023-01-24T01:51:42;-2.26;76.33
74940;HTU21D;63505;45.226;37.908;2023-01-24T01:59:26;-2.39;76.59
74940;HTU21D;63505;45.226;37.908;2023-01-24T02:01:55;-2.41;76.68
74940;HTU21D;63505;45.226;37.908;2023-01-24T02:04:27;-2.43;76.71
74940;HTU21D;63505;45.226;37.908;2023-01-24T02:07:05;-2.46;76.76
74940;HTU21D;63505;45.226;37.908;2023-01-24T02:09:40;-2.48;76.79
74940;HTU21D;63505;45.226;37.908;2023-01-24T02:12:20;-2.50;76.82
74940;HTU21D;63505;45.226;37.908;2023-01-24T02:15:00;-2.52;76.80
74940;HTU21D;63505;45.226;37.908;2023-01-24T02:17:45;-2.54;76.81
74940;HTU21D;63505;45.226;37.908;2023-01-24T02:25:39;-2.61;76.90
74940;HTU21D;63505;45.226;37.908;2023-01-24T02:28:06;-2.62;76.88
74940;HTU21D;63505;45.226;37.908;2023-01-24T02:30:35;-2.64;76.86
74940;HTU21D;63505;45.226;37.908;2023-01-24T02:33:10;-2.66;76.89
74940;HTU21D;63505;45.226;37.908;2023-01-24T02:35:36;-2.67;76.89
74940;HTU21D;63505;45.226;37.908;2023-01-24T02:38:05;-2.65;76.89
74940;HTU21D;63505;45.226;37.908;2023-01-24T02:40:32;-2.65;76.87
74940;HTU21D;63505;45.226;37.908;2023-01-24T02:43:01;-2.66;76.86
74940;HTU21D;63505;45.226;37.908;2023-01-24T02:45:33;-2.68;76.84
74940;HTU21D;63505;45.226;37.908;2023-01-24T02:47:59;-2.68;76.82
74940;HTU21D;63505;45.226;37.908;2023-01-24T02:50:29;-2.68;76.82
74940;HTU21D;63505;45.226;37.908;2023-01-24T02:53:15;-2.71;76.80
74940;HTU21D;63505;45.226;37.908;2023-01-24T02:55:58;-2.73;76.78
74940;HTU21D;63505;45.226;37.908;2023-01-24T02:58:43;-2.75;76.81
74940;HTU21D;63505;45.226;37.908;2023-01-24T03:01:08;-2.77;76.82
74940;HTU21D;63505;45.226;37.908;2023-01-24T03:03:35;-2.79;76.83
74940;HTU21D;63505;45.226;37.908;2023-01-24T03:06:00;-2.80;76.87
74940;HTU21D;63505;45.226;37.908;2023-01-24T03:08:35;-2.81;76.89
74940;HTU21D;63505;45.226;37.908;2023-01-24T03:11:05;-2.81;76.89
74940;HTU21D;63505;45.226;37.908;2023-01-24T03:13:33;-2.81;76.88
74940;HTU21D;63505;45.226;37.908;2023-01-24T03:16:17;-2.81;76.86
74940;HTU21D;63505;45.226;37.908;2023-01-24T03:19:02;-2.83;76.86
74940;HTU21D;63505;45.226;37.908;2023-01-24T03:21:47;-2.86;76.86
74940;HTU21D;63505;45.226;37.908;2023-01-24T03:24:32;-2.83;76.87
74940;HTU21D;63505;45.226;37.908;2023-01-24T03:27:17;-2.79;76.86
74940;HTU21D;63505;45.226;37.908;2023-01-24T03:30:03;-2.78;76.76
74940;HTU21D;63505;45.226;37.908;2023-01-24T03:32:48;-2.78;76.72
74940;HTU21D;63505;45.226;37.908;2023-01-24T03:35:34;-2.80;76.68
74940;HTU21D;63505;45.226;37.908;2023-01-24T03:38:00;-2.83;76.69
74940;HTU21D;63505;45.226;37.908;2023-01-24T03:40:45;-2.83;76.72
74940;HTU21D;63505;45.226;37.908;2023-01-24T03:43:12;-2.86;76.70
74940;HTU21D;63505;45.226;37.908;2023-01-24T03:45:39;-2.87;76.68
74940;HTU21D;63505;45.226;37.908;2023-01-24T03:48:09;-2.89;76.67
74940;HTU21D;63505;45.226;37.908;2023-01-24T03:50:40;-2.94;76.66
74940;HTU21D;63505;45.226;37.908;2023-01-24T03:53:30;-3.07;76.74
74940;HTU21D;63505;45.226;37.908;2023-01-24T03:55:59;-3.17;76.88
74940;HTU21D;63505;45.226;37.908;2023-01-24T03:58:29;-3.24;77.01
74940;HTU21D;63505;45.226;37.908;2023-01-24T04:00:56;-3.25;77.10
74940;HTU21D;63505;45.226;37.908;2023-01-24T04:03:48;-3.22;77.08
74940;HTU21D;63505;45.226;37.908;2023-01-24T04:06:15;-3.24;77.03
74940;HTU21D;63505;45.226;37.908;2023-01-24T04:08:43;-3.25;77.02
74940;HTU21D;63505;45.226;37.908;2023-01-24T04:11:09;-3.18;77.02
74940;HTU21D;63505;45.226;37.908;2023-01-24T04:13:34;-3.18;76.83
74940;HTU21D;63505;45.226;37.908;2023-01-24T04:16:00;-3.22;76.86
74940;HTU21D;63505;45.226;37.908;2023-01-24T04:18:49;-3.30;76.82
74940;HTU21D;63505;45.226;37.908;2023-01-24T04:21:16;-3.36;76.90
74940;HTU21D;63505;45.226;37.908;2023-01-24T04:23:44;-3.38;76.92
74940;HTU21D;63505;45.226;37.908;2023-01-24T04:26:10;-3.40;76.91
74940;HTU21D;63505;45.226;37.908;2023-01-24T04:28:37;-3.41;76.90
74940;HTU21D;63505;45.226;37.908;2023-01-24T04:31:03;-3.45;76.86
74940;HTU21D;63505;45.226;37.908;2023-01-24T04:33:52;-3.48;76.83
74940;HTU21D;63505;45.226;37.908;2023-01-24T04:36:18;-3.50;76.86
74940;HTU21D;63505;45.226;37.908;2023-01-24T04:38:43;-3.52;76.86
74940;HTU21D;63505;45.226;37.908;2023-01-24T04:41:23;-3.52;76.86
74940;HTU21D;63505;45.226;37.908;2023-01-24T04:43:50;-3.50;76.86
74940;HTU21D;63505;45.226;37.908;2023-01-24T04:46:15;-3.50;76.78
74940;HTU21D;63505;45.226;37.908;2023-01-24T04:48:55;-3.51;76.73
74940;HTU21D;63505;45.226;37.908;2023-01-24T04:51:29;-3.56;76.68
74940;HTU21D;63505;45.226;37.908;2023-01-24T04:53:55;-3.61;76.69
74940;HTU21D;63505;45.226;37.908;2023-01-24T04:56:25;-3.68;76.79
74940;HTU21D;63505;45.226;37.908;2023-01-24T04:58:52;-3.71;76.90
74940;HTU21D;63505;45.226;37.908;2023-01-24T05:01:18;-3.69;76.94
74940;HTU21D;63505;45.226;37.908;2023-01-24T05:03:57;-3.66;76.91
74940;HTU21D;63505;45.226;37.908;2023-01-24T05:06:29;-3.62;76.85
74940;HTU21D;63505;45.226;37.908;2023-01-24T05:08:57;-3.60;76.77
74940;HTU21D;63505;45.226;37.908;2023-01-24T05:11:30;-3.56;76.73
74940;HTU21D;63505;45.226;37.908;2023-01-24T05:14:00;-3.54;76.69
74940;HTU21D;63505;45.226;37.908;2023-01-24T05:16:26;-3.48;76.67
74940;HTU21D;63505;45.226;37.908;2023-01-24T05:18:52;-3.42;76.58
74940;HTU21D;63505;45.226;37.908;2023-01-24T05:21:19;-3.37;76.58
74940;HTU21D;63505;45.226;37.908;2023-01-24T05:23:49;-3.28;76.53
74940;HTU21D;63505;45.226;37.908;2023-01-24T05:26:23;-3.19;76.47
74940;HTU21D;63505;45.226;37.908;2023-01-24T05:28:52;-3.09;76.37
74940;HTU21D;63505;45.226;37.908;2023-01-24T05:31:19;-2.98;76.28
74940;HTU21D;63505;45.226;37.908;2023-01-24T05:33:45;-2.90;76.20
74940;HTU21D;63505;45.226;37.908;2023-01-24T05:36:17;-2.79;76.14
74940;HTU21D;63505;45.226;37.908;2023-01-24T05:38:45;-2.65;76.12
74940;HTU21D;63505;45.226;37.908;2023-01-24T05:41:15;-2.48;76.02
74940;HTU21D;63505;45.226;37.908;2023-01-24T05:43:45;-2.32;75.92
74940;HTU21D;63505;45.226;37.908;2023-01-24T05:46:17;-2.13;75.86
74940;HTU21D;63505;45.226;37.908;2023-01-24T05:48:53;-1.95;75.71
74940;HTU21D;63505;45.226;37.908;2023-01-24T05:51:19;-1.82;75.57
74940;HTU21D;63505;45.226;37.908;2023-01-24T05:53:47;-1.71;75.54
74940;HTU21D;63505;45.226;37.908;2023-01-24T05:56:19;-1.57;75.57
74940;HTU21D;63505;45.226;37.908;2023-01-24T05:58:47;-1.40;75.53
74940;HTU21D;63505;45.226;37.908;2023-01-24T06:01:19;-1.21;75.44
74940;HTU21D;63505;45.226;37.908;2023-01-24T06:03:47;-1.06;75.37
74940;HTU21D;63505;45.226;37.908;2023-01-24T06:06:19;-0.94;75.31
74940;HTU21D;63505;45.226;37.908;2023-01-24T06:08:45;-0.81;75.31
74940;HTU21D;63505;45.226;37.908;2023-01-24T06:11:17;-0.67;75.33
74940;HTU21D;63505;45.226;37.908;2023-01-24T06:13:44;-0.52;75.33
74940;HTU21D;63505;45.226;37.908;2023-01-24T06:16:19;-0.42;75.38
74940;HTU21D;63505;45.226;37.908;2023-01-24T06:18:47;-0.38;75.52
74940;HTU21D;63505;45.226;37.908;2023-01-24T06:23:55;-0.13;75.86
74940;HTU21D;63505;45.226;37.908;2023-01-24T06:26:26;-0.03;76.07
74940;HTU21D;63505;45.226;37.908;2023-01-24T06:28:52;0.05;76.14
74940;HTU21D;63505;45.226;37.908;2023-01-24T06:31:46;0.16;76.31
74940;HTU21D;63505;45.226;37.908;2023-01-24T06:37:15;0.44;76.57
74940;HTU21D;63505;45.226;37.908;2023-01-24T06:39:52;0.55;76.67
74940;HTU21D;63505;45.226;37.908;2023-01-24T06:42:20;0.73;76.64
74940;HTU21D;63505;45.226;37.908;2023-01-24T06:44:46;0.89;76.53
74940;HTU21D;63505;45.226;37.908;2023-01-24T06:47:13;1.04;76.54
74940;HTU21D;63505;45.226;37.908;2023-01-24T06:49:39;1.19;76.47
74940;HTU21D;63505;45.226;37.908;2023-01-24T06:52:05;1.37;76.39
74940;HTU21D;63505;45.226;37.908;2023-01-24T06:54:32;1.48;76.37
74940;HTU21D;63505;45.226;37.908;2023-01-24T06:56:59;1.55;76.63
74940;HTU21D;63505;45.226;37.908;2023-01-24T06:59:24;1.63;76.73
74940;HTU21D;63505;45.226;37.908;2023-01-24T07:01:50;1.71;76.97
74940;HTU21D;63505;45.226;37.908;2023-01-24T07:04:16;1.83;77.02
74940;HTU21D;63505;45.226;37.908;2023-01-24T07:06:43;1.97;77.02
74940;HTU21D;63505;45.226;37.908;2023-01-24T07:09:09;2.03;77.02
74940;HTU21D;63505;45.226;37.908;2023-01-24T07:11:35;2.11;77.14
74940;HTU21D;63505;45.226;37.908;2023-01-24T07:14:02;2.21;77.10
74940;HTU21D;63505;45.226;37.908;2023-01-24T07:16:28;2.25;77.21
74940;HTU21D;63505;45.226;37.908;2023-01-24T07:18:54;2.35;77.27
74940;HTU21D;63505;45.226;37.908;2023-01-24T07:21:20;2.34;77.15
74940;HTU21D;63505;45.226;37.908;2023-01-24T07:23:47;2.34;77.24
74940;HTU21D;63505;45.226;37.908;2023-01-24T07:26:14;2.31;77.29
74940;HTU21D;63505;45.226;37.908;2023-01-24T07:28:40;2.40;77.44
74940;HTU21D;63505;45.226;37.908;2023-01-24T07:31:07;2.49;77.29
74940;HTU21D;63505;45.226;37.908;2023-01-24T07:33:33;2.54;77.28
74940;HTU21D;63505;45.226;37.908;2023-01-24T07:35:59;2.72;77.31
74940;HTU21D;63505;45.226;37.908;2023-01-24T07:38:25;2.84;77.08
74940;HTU21D;63505;45.226;37.908;2023-01-24T07:40:51;2.90;77.07
74940;HTU21D;63505;45.226;37.908;2023-01-24T07:43:16;3.08;76.95
74940;HTU21D;63505;45.226;37.908;2023-01-24T07:45:47;3.20;76.83
74940;HTU21D;63505;45.226;37.908;2023-01-24T07:48:13;3.29;76.58
74940;HTU21D;63505;45.226;37.908;2023-01-24T07:50:38;3.27;76.43
74940;HTU21D;63505;45.226;37.908;2023-01-24T07:53:04;3.29;76.50
74940;HTU21D;63505;45.226;37.908;2023-01-24T07:55:30;3.40;76.52
74940;HTU21D;63505;45.226;37.908;2023-01-24T07:58:00;3.56;76.44
74940;HTU21D;63505;45.226;37.908;2023-01-24T08:00:28;3.72;76.32
74940;HTU21D;63505;45.226;37.908;2023-01-24T08:02:54;3.80;75.77
74940;HTU21D;63505;45.226;37.908;2023-01-24T08:05:20;3.71;75.41
74940;HTU21D;63505;45.226;37.908;2023-01-24T08:07:46;3.71;75.56
74940;HTU21D;63505;45.226;37.908;2023-01-24T08:10:12;3.74;75.38
74940;HTU21D;63505;45.226;37.908;2023-01-24T08:12:37;3.85;75.34
74940;HTU21D;63505;45.226;37.908;2023-01-24T08:15:04;3.89;75.08
74940;HTU21D;63505;45.226;37.908;2023-01-24T08:17:30;3.92;74.87
74940;HTU21D;63505;45.226;37.908;2023-01-24T08:19:56;3.90;74.59
74940;HTU21D;63505;45.226;37.908;2023-01-24T08:22:22;3.89;74.51
74940;HTU21D;63505;45.226;37.908;2023-01-24T08:24:48;3.80;74.04
74940;HTU21D;63505;45.226;37.908;2023-01-24T08:27:13;3.69;74.05
74940;HTU21D;63505;45.226;37.908;2023-01-24T08:29:39;3.72;74.41
74940;HTU21D;63505;45.226;37.908;2023-01-24T08:32:05;3.93;74.35
74940;HTU21D;63505;45.226;37.908;2023-01-24T08:34:31;4.13;74.21
74940;HTU21D;63505;45.226;37.908;2023-01-24T08:36:57;4.33;74.06
74940;HTU21D;63505;45.226;37.908;2023-01-24T08:39:23;4.57;73.86
74940;HTU21D;63505;45.226;37.908;2023-01-24T08:41:49;4.79;73.78
74940;HTU21D;63505;45.226;37.908;2023-01-24T08:44:15;5.07;73.52
74940;HTU21D;63505;45.226;37.908;2023-01-24T08:46:41;5.20;72.84
74940;HTU21D;63505;45.226;37.908;2023-01-24T08:49:10;5.32;73.03
74940;HTU21D;63505;45.226;37.908;2023-01-24T08:51:35;5.37;72.58
74940;HTU21D;63505;45.226;37.908;2023-01-24T08:54:03;5.50;72.42
74940;HTU21D;63505;45.226;37.908;2023-01-24T08:56:29;5.50;72.13
74940;HTU21D;63505;45.226;37.908;2023-01-24T08:58:56;5.59;71.92
74940;HTU21D;63505;45.226;37.908;2023-01-24T09:01:21;5.65;71.85
74940;HTU21D;63505;45.226;37.908;2023-01-24T09:03:47;5.81;71.84
74940;HTU21D;63505;45.226;37.908;2023-01-24T09:06:14;5.96;71.70
74940;HTU21D;63505;45.226;37.908;2023-01-24T09:08:40;6.09;71.42
74940;HTU21D;63505;45.226;37.908;2023-01-24T09:11:06;6.12;71.22
74940;HTU21D;63505;45.226;37.908;2023-01-24T09:13:32;6.28;71.49
74940;HTU21D;63505;45.226;37.908;2023-01-24T09:15:58;6.66;71.28
74940;HTU21D;63505;45.226;37.908;2023-01-24T09:18:24;6.87;69.80
74940;HTU21D;63505;45.226;37.908;2023-01-24T09:20:50;6.84;70.06
74940;HTU21D;63505;45.226;37.908;2023-01-24T09:23:16;7.05;70.26
74940;HTU21D;63505;45.226;37.908;2023-01-24T09:25:50;7.28;70.11
74940;HTU21D;63505;45.226;37.908;2023-01-24T09:28:16;7.38;69.81
74940;HTU21D;63505;45.226;37.908;2023-01-24T09:30:48;7.49;69.94
74940;HTU21D;63505;45.226;37.908;2023-01-24T09:33:15;7.61;69.77
74940;HTU21D;63505;45.226;37.908;2023-01-24T09:35:50;7.68;69.45
74940;HTU21D;63505;45.226;37.908;2023-01-24T09:38:17;7.82;69.36
74940;HTU21D;63505;45.226;37.908;2023-01-24T09:40:45;7.87;69.10
74940;HTU21D;63505;45.226;37.908;2023-01-24T09:49:07;8.19;69.17
74940;HTU21D;63505;45.226;37.908;2023-01-24T09:51:40;8.37;69.01
74940;HTU21D;63505;45.226;37.908;2023-01-24T09:54:15;8.48;68.65
74940;HTU21D;63505;45.226;37.908;2023-01-24T09:56:43;8.47;68.45
74940;HTU21D;63505;45.226;37.908;2023-01-24T09:59:42;8.55;68.21
74940;HTU21D;63505;45.226;37.908;2023-01-24T10:02:27;8.43;67.30
74940;HTU21D;63505;45.226;37.908;2023-01-24T10:04:54;8.33;67.15
74940;HTU21D;63505;45.226;37.908;2023-01-24T10:12:38;8.95;67.14
74940;HTU21D;63505;45.226;37.908;2023-01-24T10:23:40;8.50;64.18
74940;HTU21D;63505;45.226;37.908;2023-01-24T10:26:27;8.42;63.79
74940;HTU21D;63505;45.226;37.908;2023-01-24T10:29:06;8.45;63.92
74940;HTU21D;63505;45.226;37.908;2023-01-24T10:31:39;8.35;62.85
74940;HTU21D;63505;45.226;37.908;2023-01-24T10:37:04;8.51;63.28
74940;HTU21D;63505;45.226;37.908;2023-01-24T10:39:30;8.56;63.15
74940;HTU21D;63505;45.226;37.908;2023-01-24T10:41:56;8.67;62.89
74940;HTU21D;63505;45.226;37.908;2023-01-24T10:44:30;8.68;62.50
74940;HTU21D;63505;45.226;37.908;2023-01-24T10:49:59;8.76;62.52
74940;HTU21D;63505;45.226;37.908;2023-01-24T10:52:26;8.74;61.77
74940;HTU21D;63505;45.226;37.908;2023-01-24T10:54:57;8.70;62.05
74940;HTU21D;63505;45.226;37.908;2023-01-24T10:57:36;8.85;62.47
74940;HTU21D;63505;45.226;37.908;2023-01-24T11:02:57;8.85;61.70
74940;HTU21D;63505;45.226;37.908;2023-01-24T11:05:24;8.98;62.06
74940;HTU21D;63505;45.226;37.908;2023-01-24T11:07:59;9.19;62.15
74940;HTU21D;63505;45.226;37.908;2023-01-24T11:10:36;9.34;62.29
74940;HTU21D;63505;45.226;37.908;2023-01-24T11:13:36;9.34;62.22
74940;HTU21D;63505;45.226;37.908;2023-01-24T11:16:05;9.29;62.32
74940;HTU21D;63505;45.226;37.908;2023-01-24T11:18:31;9.34;62.66
74940;HTU21D;63505;45.226;37.908;2023-01-24T11:21:06;9.49;62.71
74940;HTU21D;63505;45.226;37.908;2023-01-24T11:23:32;9.50;62.52
74940;HTU21D;63505;45.226;37.908;2023-01-24T11:26:00;9.62;62.67
74940;HTU21D;63505;45.226;37.908;2023-01-24T11:28:33;9.56;61.74
74940;HTU21D;63505;45.226;37.908;2023-01-24T11:31:02;9.51;62.15
74940;HTU21D;63505;45.226;37.908;2023-01-24T11:33:58;9.62;62.31
74940;HTU21D;63505;45.226;37.908;2023-01-24T11:39:36;9.72;62.36
74940;HTU21D;63505;45.226;37.908;2023-01-24T12:12:50;9.96;62.41
74940;HTU21D;63505;45.226;37.908;2023-01-24T12:20:30;9.74;62.02
74940;HTU21D;63505;45.226;37.908;2023-01-24T12:23:19;9.77;61.95
74940;HTU21D;63505;45.226;37.908;2023-01-24T12:25:46;9.71;61.64
74940;HTU21D;63505;45.226;37.908;2023-01-24T12:28:21;9.64;61.62
74940;HTU21D;63505;45.226;37.908;2023-01-24T12:30:52;9.52;60.86
74940;HTU21D;63505;45.226;37.908;2023-01-24T12:33:27;9.42;61.30
74940;HTU21D;63505;45.226;37.908;2023-01-24T12:36:04;9.42;61.63
74940;HTU21D;63505;45.226;37.908;2023-01-24T12:38:49;9.49;61.60
74940;HTU21D;63505;45.226;37.908;2023-01-24T12:41:30;9.56;61.74
74940;HTU21D;63505;45.226;37.908;2023-01-24T12:44:31;9.53;61.19
74940;HTU21D;63505;45.226;37.908;2023-01-24T12:52:27;9.20;61.44
74940;HTU21D;63505;45.226;37.908;2023-01-24T12:55:12;9.29;61.67
74940;HTU21D;63505;45.226;37.908;2023-01-24T13:00:45;9.32;61.84
74940;HTU21D;63505;45.226;37.908;2023-01-24T13:06:04;8.76;61.18
74940;HTU21D;63505;45.226;37.908;2023-01-24T13:11:45;8.29;61.69
74940;HTU21D;63505;45.226;37.908;2023-01-24T13:14:29;8.20;62.13
74940;HTU21D;63505;45.226;37.908;2023-01-24T13:17:55;8.16;62.22
74940;HTU21D;63505;45.226;37.908;2023-01-24T13:33:38;7.84;62.62
74940;HTU21D;63505;45.226;37.908;2023-01-24T13:36:07;7.76;62.73
74940;HTU21D;63505;45.226;37.908;2023-01-24T13:38:42;7.68;62.85
74940;HTU21D;63505;45.226;37.908;2023-01-24T13:41:15;7.58;62.94
74940;HTU21D;63505;45.226;37.908;2023-01-24T13:51:55;7.00;63.47
74940;HTU21D;63505;45.226;37.908;2023-01-24T13:59:40;6.44;63.97
74940;HTU21D;63505;45.226;37.908;2023-01-24T14:02:59;6.13;64.51
74940;HTU21D;63505;45.226;37.908;2023-01-24T14:07:56;5.51;65.67
74940;HTU21D;63505;45.226;37.908;2023-01-24T14:13:00;5.26;65.65
74940;HTU21D;63505;45.226;37.908;2023-01-24T14:15:37;5.12;65.65
74940;HTU21D;63505;45.226;37.908;2023-01-24T14:21:15;4.92;65.51
74940;HTU21D;63505;45.226;37.908;2023-01-24T14:23:47;4.80;65.52
74940;HTU21D;63505;45.226;37.908;2023-01-24T14:26:16;4.67;65.58
74940;HTU21D;63505;45.226;37.908;2023-01-24T14:28:45;4.59;65.59
74940;HTU21D;63505;45.226;37.908;2023-01-24T14:31:35;4.50;65.60
74940;HTU21D;63505;45.226;37.908;2023-01-24T14:36:32;4.31;65.69
74940;HTU21D;63505;45.226;37.908;2023-01-24T14:41:45;4.31;65.64
74940;HTU21D;63505;45.226;37.908;2023-01-24T14:44:23;4.30;65.53
74940;HTU21D;63505;45.226;37.908;2023-01-24T14:49:33;4.04;65.73
74940;HTU21D;63505;45.226;37.908;2023-01-24T14:52:00;3.90;65.92
74940;HTU21D;63505;45.226;37.908;2023-01-24T14:54:26;3.79;66.12
74940;HTU21D;63505;45.226;37.908;2023-01-24T14:56:52;3.71;66.23
74940;HTU21D;63505;45.226;37.908;2023-01-24T14:59:20;3.61;66.34
74940;HTU21D;63505;45.226;37.908;2023-01-24T15:01:51;3.53;66.47
74940;HTU21D;63505;45.226;37.908;2023-01-24T15:04:29;3.48;66.55
74940;HTU21D;63505;45.226;37.908;2023-01-24T15:07:11;3.42;66.57
74940;HTU21D;63505;45.226;37.908;2023-01-24T15:09:38;3.35;66.58
74940;HTU21D;63505;45.226;37.908;2023-01-24T15:12:33;3.23;66.72
74940;HTU21D;63505;45.226;37.908;2023-01-24T15:15:01;3.15;66.77
74940;HTU21D;63505;45.226;37.908;2023-01-24T15:17:30;3.11;66.80
74940;HTU21D;63505;45.226;37.908;2023-01-24T15:20:06;3.02;66.85
74940;HTU21D;63505;45.226;37.908;2023-01-24T15:22:37;2.95;66.91
74940;HTU21D;63505;45.226;37.908;2023-01-24T15:25:19;2.86;66.98
74940;HTU21D;63505;45.226;37.908;2023-01-24T15:27:45;2.80;67.04
74940;HTU21D;63505;45.226;37.908;2023-01-24T15:30:25;2.73;67.13
74940;HTU21D;63505;45.226;37.908;2023-01-24T15:40:29;2.32;67.41
74940;HTU21D;63505;45.226;37.908;2023-01-24T15:42:56;2.17;67.67
74940;HTU21D;63505;45.226;37.908;2023-01-24T15:45:49;2.09;67.78
74940;HTU21D;63505;45.226;37.908;2023-01-24T15:48:22;2.01;67.76
74940;HTU21D;63505;45.226;37.908;2023-01-24T15:50:51;1.85;67.93
74940;HTU21D;63505;45.226;37.908;2023-01-24T15:53:33;1.75;68.05
74940;HTU21D;63505;45.226;37.908;2023-01-24T15:56:12;1.67;68.07
74940;HTU21D;63505;45.226;37.908;2023-01-24T15:58:40;1.60;68.11
74940;HTU21D;63505;45.226;37.908;2023-01-24T16:01:05;1.52;68.18
74940;HTU21D;63505;45.226;37.908;2023-01-24T16:03:31;1.47;68.21
74940;HTU21D;63505;45.226;37.908;2023-01-24T16:05:58;1.38;68.26
74940;HTU21D;63505;45.226;37.908;2023-01-24T16:08:24;1.33;68.31
74940;HTU21D;63505;45.226;37.908;2023-01-24T16:10:51;1.29;68.36
74940;HTU21D;63505;45.226;37.908;2023-01-24T16:15:59;1.20;68.37
74940;HTU21D;63505;45.226;37.908;2023-01-24T16:18:27;1.17;68.39
74940;HTU21D;63505;45.226;37.908;2023-01-24T16:20:53;1.16;68.40
74940;HTU21D;63505;45.226;37.908;2023-01-24T16:23:19;1.13;68.41
74940;HTU21D;63505;45.226;37.908;2023-01-24T16:25:50;1.08;68.35
74940;HTU21D;63505;45.226;37.908;2023-01-24T16:28:23;0.99;68.47
74940;HTU21D;63505;45.226;37.908;2023-01-24T16:30:50;0.94;68.52
74940;HTU21D;63505;45.226;37.908;2023-01-24T16:33:17;0.83;68.57
74940;HTU21D;63505;45.226;37.908;2023-01-24T16:35:44;0.77;68.75
74940;HTU21D;63505;45.226;37.908;2023-01-24T16:38:12;0.72;68.78
74940;HTU21D;63505;45.226;37.908;2023-01-24T16:40:38;0.65;68.89
74940;HTU21D;63505;45.226;37.908;2023-01-24T16:43:05;0.64;68.91
74940;HTU21D;63505;45.226;37.908;2023-01-24T16:45:32;0.60;68.90
74940;HTU21D;63505;45.226;37.908;2023-01-24T16:47:59;0.52;68.89
74940;HTU21D;63505;45.226;37.908;2023-01-24T16:50:26;0.44;69.06
74940;HTU21D;63505;45.226;37.908;2023-01-24T16:52:52;0.42;69.17
74940;HTU21D;63505;45.226;37.908;2023-01-24T16:55:19;0.44;69.14
74940;HTU21D;63505;45.226;37.908;2023-01-24T16:57:45;0.45;69.09
74940;HTU21D;63505;45.226;37.908;2023-01-24T17:00:12;0.38;69.07
74940;HTU21D;63505;45.226;37.908;2023-01-24T17:02:42;0.33;69.14
74940;HTU21D;63505;45.226;37.908;2023-01-24T17:05:09;0.27;69.22
74940;HTU21D;63505;45.226;37.908;2023-01-24T17:07:35;0.19;69.23
74940;HTU21D;63505;45.226;37.908;2023-01-24T17:10:01;0.13;69.36
74940;HTU21D;63505;45.226;37.908;2023-01-24T17:12:30;0.07;69.37
74940;HTU21D;63505;45.226;37.908;2023-01-24T17:14:55;-0.01;69.45
74940;HTU21D;63505;45.226;37.908;2023-01-24T17:17:22;-0.06;69.55
74940;HTU21D;63505;45.226;37.908;2023-01-24T17:19:51;-0.10;69.59
74940;HTU21D;63505;45.226;37.908;2023-01-24T17:22:17;-0.13;69.61
74940;HTU21D;63505;45.226;37.908;2023-01-24T17:24:44;-0.13;69.65
74940;HTU21D;63505;45.226;37.908;2023-01-24T17:27:10;-0.15;69.59
74940;HTU21D;63505;45.226;37.908;2023-01-24T17:29:36;-0.17;69.63
74940;HTU21D;63505;45.226;37.908;2023-01-24T17:32:02;-0.22;69.66
74940;HTU21D;63505;45.226;37.908;2023-01-24T17:34:28;-0.25;69.69
74940;HTU21D;63505;45.226;37.908;2023-01-24T17:36:53;-0.27;69.72
74940;HTU21D;63505;45.226;37.908;2023-01-24T17:39:20;-0.30;69.70
74940;HTU21D;63505;45.226;37.908;2023-01-24T17:41:45;-0.38;69.81
74940;HTU21D;63505;45.226;37.908;2023-01-24T17:44:11;-0.38;69.87
74940;HTU21D;63505;45.226;37.908;2023-01-24T17:46:38;-0.38;69.89
74940;HTU21D;63505;45.226;37.908;2023-01-24T17:49:04;-0.36;69.87
74940;HTU21D;63505;45.226;37.908;2023-01-24T17:51:30;-0.36;69.83
74940;HTU21D;63505;45.226;37.908;2023-01-24T17:53:57;-0.37;69.85
74940;HTU21D;63505;45.226;37.908;2023-01-24T17:56:24;-0.39;69.86
74940;HTU21D;63505;45.226;37.908;2023-01-24T17:58:50;-0.40;69.90
74940;HTU21D;63505;45.226;37.908;2023-01-24T18:01:15;-0.40;69.95